Time;durP1;ratioP1;P1;durP2;ratioP2;P2;SDS_P1;SDS_P2;PMS_P1;PMS_P2;Temp;Humidity;BMP_temperature;BMP_pressure;BME280_temperature;BME280_humidity;BME280_pressure;Samples;Min_cycle;Max_cycle;Signal;HPM_P1;HPM_P2
2022/01/15 00:01:59;;;;;;;;;;;;;;;-6.47;93.00;99740.50;5014346;28;19922;-73
2022/01/15 00:04:27;;;;;;;;;;;;;;;-6.35;92.30;99742.16;5013658;28;19921;-75
2022/01/15 00:06:53;;;;;;;;;;;;;;;-6.32;91.94;99748.91;5013880;28;20307;-75
2022/01/15 00:09:20;;;;;;;;;;;;;;;-6.19;92.15;99737.88;5014254;28;19925;-70
2022/01/15 00:11:46;;;;;;;;;;;;;;;-6.30;91.63;99745.50;5013946;28;20291;-70
2022/01/15 00:14:21;;;;;;;;;;;;;;;-6.16;91.40;99742.97;5014320;28;19921;-70
2022/01/15 00:16:50;;;;;;;;;;;;;;;-6.30;92.12;99745.50;5013660;28;19926;-70
2022/01/15 00:19:18;;;;;;;;;;;;;;;-6.10;91.41;99744.63;5013650;28;19976;-71
2022/01/15 00:21:46;;;;;;;;;;;;;;;-6.12;91.43;99747.16;5013929;28;19952;-69
2022/01/15 00:24:15;;;;;;;;;;;;;;;-6.21;91.89;99752.25;5013971;28;20371;-72
2022/01/15 00:26:41;;;;;;;;;;;;;;;-6.15;92.51;99755.59;5014156;28;19922;-69
2022/01/15 00:29:08;;;;;;;;;;;;;;;-6.05;91.71;99748.81;5013567;28;19922;-70
2022/01/15 00:31:34;;;;;;;;;;;;;;;-6.08;91.47;99758.97;5013399;28;20384;-71
2022/01/15 00:34:01;;;;;;;;;;;;;;;-6.10;91.83;99759.81;5013616;28;19929;-69
2022/01/15 00:36:28;;;;;;;;;;;;;;;-6.15;91.95;99760.66;5013486;28;19936;-70
2022/01/15 00:38:55;;;;;;;;;;;;;;;-6.21;92.63;99775.88;5013756;28;19921;-69
2022/01/15 00:41:22;;;;;;;;;;;;;;;-6.14;92.09;99766.56;5027689;28;19943;-69
2022/01/15 00:43:49;;;;;;;;;;;;;;;-6.19;92.03;99775.84;5033500;28;19921;-70
2022/01/15 00:46:15;;;;;;;;;;;;;;;-6.14;91.66;99776.69;5014874;28;19921;-70
2022/01/15 00:48:42;;;;;;;;;;;;;;;-6.24;91.86;99775.03;5013818;28;19925;-71
2022/01/15 00:51:08;;;;;;;;;;;;;;;-6.28;91.82;99781.81;5013165;28;19922;-70
2022/01/15 00:53:35;;;;;;;;;;;;;;;-6.29;91.65;99786.84;5013477;28;19922;-69
2022/01/15 00:56:03;;;;;;;;;;;;;;;-6.37;91.79;99794.47;5013213;28;19922;-71
2022/01/15 00:58:30;;;;;;;;;;;;;;;-6.48;92.42;99796.19;5012741;28;19925;-71
2022/01/15 01:00:56;;;;;;;;;;;;;;;-6.60;93.17;99802.09;5013337;28;19921;-70
2022/01/15 01:03:23;;;;;;;;;;;;;;;-6.59;93.31;99806.31;5013338;28;19921;-70
2022/01/15 01:05:49;;;;;;;;;;;;;;;-6.73;93.56;99802.94;5013170;28;19921;-70
2022/01/15 01:08:16;;;;;;;;;;;;;;;-6.92;94.20;99805.47;5013173;28;19921;-71
2022/01/15 01:10:52;;;;;;;;;;;;;;;-6.92;94.76;99814.75;5013104;28;19922;-69
2022/01/15 01:20:01;;;;;;;;;;;;;;;-6.92;94.46;99815.56;5013210;28;19925;-70
2022/01/15 01:24:39;;;;;;;;;;;;;;;-6.70;93.40;99831.63;5012863;28;20056;-71
2022/01/15 01:27:11;;;;;;;;;;;;;;;-6.82;94.16;99829.06;5012407;28;19928;-70
2022/01/15 01:29:51;;;;;;;;;;;;;;;-6.75;94.83;99832.47;5012789;28;19925;-72
2022/01/15 01:32:36;;;;;;;;;;;;;;;-6.74;94.96;99827.38;5013178;28;19929;-70
2022/01/15 01:35:09;;;;;;;;;;;;;;;-6.85;94.74;99827.38;5012997;28;19925;-73
2022/01/15 01:37:40;;;;;;;;;;;;;;;-6.86;95.46;99843.41;5012760;28;19921;-73
2022/01/15 01:40:17;;;;;;;;;;;;;;;-6.88;95.07;99849.31;5016101;28;19921;-73
2022/01/15 01:42:54;;;;;;;;;;;;;;;-6.93;95.37;99849.31;5032845;28;19921;-72
2022/01/15 01:45:22;;;;;;;;;;;;;;;-6.80;95.28;99858.59;5021748;28;20391;-72
2022/01/15 01:47:49;;;;;;;;;;;;;;;-6.91;95.66;99860.28;5012061;28;20279;-71
2022/01/15 01:50:16;;;;;;;;;;;;;;;-6.96;95.98;99861.09;5011858;28;19943;-74
2022/01/15 01:52:44;;;;;;;;;;;;;;;-6.83;95.96;99857.75;5010473;28;19921;-72
2022/01/15 01:55:12;;;;;;;;;;;;;;;-6.72;95.75;99843.41;5010616;28;20383;-72
2022/01/15 01:57:38;;;;;;;;;;;;;;;-6.66;95.45;99861.13;5011239;28;19929;-72
2022/01/15 02:00:06;;;;;;;;;;;;;;;-6.67;95.98;99861.13;5011046;28;20291;-72
2022/01/15 02:02:34;;;;;;;;;;;;;;;-6.69;95.95;99863.66;5010731;28;19922;-72
2022/01/15 02:05:00;;;;;;;;;;;;;;;-6.66;95.92;99871.25;5010644;28;19921;-72
2022/01/15 02:07:27;;;;;;;;;;;;;;;-6.50;95.50;99871.25;5012090;28;19932;-74
2022/01/15 02:09:54;;;;;;;;;;;;;;;-6.54;95.54;99879.72;5012416;28;19921;-73
2022/01/15 02:12:20;;;;;;;;;;;;;;;-6.54;96.02;99887.28;5016470;28;20016;-71
2022/01/15 02:14:47;;;;;;;;;;;;;;;-6.55;96.04;99883.94;5016668;28;19944;-71
2022/01/15 02:17:16;;;;;;;;;;;;;;;-6.32;95.89;99888.13;5016118;28;19933;-72
2022/01/15 02:19:57;;;;;;;;;;;;;;;-6.32;95.51;99890.66;5016210;28;20051;-72
2022/01/15 02:25:09;;;;;;;;;;;;;;;-6.26;95.61;99913.47;5016090;28;19998;-71
2022/01/15 02:27:35;;;;;;;;;;;;;;;-6.39;95.81;99921.06;5015808;28;19922;-72
2022/01/15 02:30:04;;;;;;;;;;;;;;;-6.53;96.62;99925.25;5016059;28;19921;-72
2022/01/15 02:32:31;;;;;;;;;;;;;;;-6.67;96.95;99937.03;5015869;28;20434;-72
2022/01/15 02:34:59;;;;;;;;;;;;;;;-6.55;97.02;99933.66;5015831;28;19921;-72
2022/01/15 02:37:28;;;;;;;;;;;;;;;-6.44;96.57;99950.56;5015857;28;19928;-72
2022/01/15 02:39:54;;;;;;;;;;;;;;;-6.31;95.97;99946.38;5015815;28;19921;-72
2022/01/15 02:42:21;;;;;;;;;;;;;;;-6.32;96.33;99943.81;5015998;28;19922;-72
2022/01/15 02:44:47;;;;;;;;;;;;;;;-6.35;96.76;99937.06;5015554;28;20288;-72
2022/01/15 02:49:59;;;;;;;;;;;;;;;-5.92;96.79;99942.94;5015524;28;19976;-73
2022/01/15 02:52:26;;;;;;;;;;;;;;;-5.91;96.07;99946.31;5015653;28;19921;-73
2022/01/15 02:54:53;;;;;;;;;;;;;;;-5.85;95.59;99951.41;5015759;28;19928;-72
2022/01/15 02:57:19;;;;;;;;;;;;;;;-5.63;96.03;99949.66;5016042;28;19928;-74
2022/01/15 02:59:46;;;;;;;;;;;;;;;-5.53;94.89;99948.78;5015553;28;19929;-72
2022/01/15 03:02:12;;;;;;;;;;;;;;;-5.64;95.80;99939.53;5015367;28;19926;-72
2022/01/15 03:04:39;;;;;;;;;;;;;;;-5.50;95.04;99953.00;5015459;28;19921;-72
2022/01/15 03:07:07;;;;;;;;;;;;;;;-5.40;94.91;99953.84;5015107;28;19936;-72
2022/01/15 03:09:34;;;;;;;;;;;;;;;-5.43;95.07;99958.91;5015322;28;19922;-72
2022/01/15 03:12:02;;;;;;;;;;;;;;;-5.50;94.60;99951.34;5015119;28;19933;-74
2022/01/15 03:14:31;;;;;;;;;;;;;;;-5.52;94.45;99962.34;5015413;28;19928;-74
2022/01/15 03:16:57;;;;;;;;;;;;;;;-5.35;94.37;99959.72;5015185;28;19928;-72
2022/01/15 03:19:24;;;;;;;;;;;;;;;-5.46;94.30;99959.78;5015377;28;19921;-72
2022/01/15 03:21:50;;;;;;;;;;;;;;;-5.45;94.48;99956.38;5014966;28;19996;-72
2022/01/15 03:24:18;;;;;;;;;;;;;;;-5.48;94.36;99958.91;5014952;28;19925;-72
2022/01/15 03:26:45;;;;;;;;;;;;;;;-5.52;94.92;99955.56;5014967;28;20394;-72
2022/01/15 03:29:12;;;;;;;;;;;;;;;-5.47;94.46;99963.16;5014871;28;19922;-73
2022/01/15 03:31:38;;;;;;;;;;;;;;;-5.43;94.92;99961.44;5014884;28;19928;-72
2022/01/15 03:34:05;;;;;;;;;;;;;;;-5.47;94.71;99956.41;5014945;28;19928;-72
2022/01/15 03:36:31;;;;;;;;;;;;;;;-5.39;95.19;99953.84;5014563;28;20283;-73
2022/01/15 03:38:58;;;;;;;;;;;;;;;-5.34;94.47;99957.22;5014717;28;19922;-72
2022/01/15 03:41:26;;;;;;;;;;;;;;;-5.27;94.27;99963.09;5015107;28;19921;-72
2022/01/15 03:43:52;;;;;;;;;;;;;;;-5.22;93.71;99970.69;5014981;28;19921;-73
2022/01/15 03:46:20;;;;;;;;;;;;;;;-5.32;94.37;99980.88;5014510;28;19921;-73
2022/01/15 03:48:47;;;;;;;;;;;;;;;-5.21;94.44;99974.91;5014467;28;19932;-74
2022/01/15 03:51:17;;;;;;;;;;;;;;;-5.23;93.89;99986.75;5014519;28;19976;-73
2022/01/15 03:53:44;;;;;;;;;;;;;;;-5.15;94.13;99996.03;5014450;28;19930;-72
2022/01/15 03:56:10;;;;;;;;;;;;;;;-5.17;94.03;99996.88;5014378;28;19928;-72
2022/01/15 03:58:38;;;;;;;;;;;;;;;-5.15;94.00;99988.41;5014715;28;19928;-72
2022/01/15 04:01:05;;;;;;;;;;;;;;;-5.12;93.31;100000.25;5014296;28;19925;-73
2022/01/15 04:03:32;;;;;;;;;;;;;;;-5.11;93.98;100007.00;5014196;28;20296;-72
2022/01/15 04:05:58;;;;;;;;;;;;;;;-5.05;93.35;100023.06;5014036;28;20284;-72
2022/01/15 04:08:25;;;;;;;;;;;;;;;-5.07;93.45;100026.44;5014249;28;19928;-72
2022/01/15 04:10:51;;;;;;;;;;;;;;;-5.02;92.89;100027.28;5014003;28;20368;-73
2022/01/15 04:13:19;;;;;;;;;;;;;;;-5.07;93.53;100041.66;5013960;28;19934;-73
2022/01/15 04:15:51;;;;;;;;;;;;;;;-5.12;93.37;100039.13;5014095;28;19921;-72
2022/01/15 04:18:18;;;;;;;;;;;;;;;-5.13;93.08;100042.53;5013805;28;20422;-73
2022/01/15 04:20:44;;;;;;;;;;;;;;;-5.08;93.03;100050.97;5013842;28;19921;-73
2022/01/15 04:23:11;;;;;;;;;;;;;;;-5.08;92.73;100050.97;5014083;28;19921;-72
2022/01/15 04:25:38;;;;;;;;;;;;;;;-4.97;93.16;100055.16;5013894;28;19921;-73
2022/01/15 04:28:08;;;;;;;;;;;;;;;-5.04;92.80;100050.09;5013446;28;19921;-73
2022/01/15 04:30:35;;;;;;;;;;;;;;;-5.16;93.04;100049.28;5013818;28;20364;-73
2022/01/15 04:33:03;;;;;;;;;;;;;;;-5.10;92.58;100049.28;5013283;28;20364;-72
2022/01/15 04:35:30;;;;;;;;;;;;;;;-5.19;93.16;100049.28;5013828;28;20371;-73
2022/01/15 04:38:03;;;;;;;;;;;;;;;-5.19;92.72;100052.66;5013972;28;19926;-74
2022/01/15 04:40:30;;;;;;;;;;;;;;;-5.20;92.87;100055.22;5014027;28;19943;-73
2022/01/15 04:42:56;;;;;;;;;;;;;;;-5.22;93.04;100059.44;5013738;28;19921;-73
2022/01/15 04:45:23;;;;;;;;;;;;;;;-5.10;92.70;100060.28;5013549;28;20001;-72
2022/01/15 04:47:49;;;;;;;;;;;;;;;-5.08;92.91;100070.44;5013269;28;19929;-74
2022/01/15 04:50:18;;;;;;;;;;;;;;;-5.12;93.17;100069.56;5013646;28;19928;-73
2022/01/15 04:52:45;;;;;;;;;;;;;;;-5.03;92.74;100067.03;5013328;28;20016;-73
2022/01/15 04:55:12;;;;;;;;;;;;;;;-4.97;92.79;100065.31;5013267;28;19921;-74
2022/01/15 04:57:40;;;;;;;;;;;;;;;-4.83;92.24;100071.19;5013573;28;20364;-74
2022/01/15 05:00:08;;;;;;;;;;;;;;;-4.80;92.60;100076.28;5013645;28;20004;-74
2022/01/15 05:02:35;;;;;;;;;;;;;;;-4.81;91.89;100062.72;5013211;28;19921;-74
2022/01/15 05:05:02;;;;;;;;;;;;;;;-4.87;92.67;100075.44;5013133;28;19921;-76
2022/01/15 05:07:30;;;;;;;;;;;;;;;-4.84;92.48;100083.03;5013203;28;19921;-75
2022/01/15 05:09:56;;;;;;;;;;;;;;;-4.84;92.46;100085.56;5013478;28;19921;-75
2022/01/15 05:12:28;;;;;;;;;;;;;;;-4.87;92.16;100089.81;5013170;28;19929;-74
2022/01/15 05:14:55;;;;;;;;;;;;;;;-4.83;91.65;100097.44;5012925;28;20006;-75
2022/01/15 05:17:21;;;;;;;;;;;;;;;-4.79;91.64;100098.25;5012721;28;20360;-73
2022/01/15 05:19:48;;;;;;;;;;;;;;;-4.72;91.20;100102.47;5013169;28;19921;-73
2022/01/15 05:22:14;;;;;;;;;;;;;;;-4.84;91.23;100097.41;5013198;28;19932;-73
2022/01/15 05:24:42;;;;;;;;;;;;;;;-4.89;91.63;100104.19;5012976;28;19922;-74
2022/01/15 05:27:09;;;;;;;;;;;;;;;-4.78;90.71;100101.63;5012613;28;20279;-73
2022/01/15 05:29:36;;;;;;;;;;;;;;;-4.77;90.09;100103.34;5012792;28;20360;-73
2022/01/15 05:32:02;;;;;;;;;;;;;;;-4.71;89.30;100110.91;5012998;28;20303;-74
2022/01/15 05:34:29;;;;;;;;;;;;;;;-4.76;89.43;100105.84;5013253;28;19922;-73
2022/01/15 05:36:55;;;;;;;;;;;;;;;-4.66;88.69;100117.66;5012579;28;19932;-73
2022/01/15 05:39:22;;;;;;;;;;;;;;;-4.62;87.53;100114.28;5012681;28;19922;-74
2022/01/15 05:41:50;;;;;;;;;;;;;;;-4.68;88.22;100114.28;5012645;28;19925;-73
2022/01/15 05:44:17;;;;;;;;;;;;;;;-4.68;87.87;100119.38;5012728;28;19921;-74
2022/01/15 05:46:44;;;;;;;;;;;;;;;-4.73;88.44;100122.78;5015218;28;20276;-73
2022/01/15 05:49:11;;;;;;;;;;;;;;;-4.68;87.82;100121.91;5016927;28;19922;-73
2022/01/15 05:51:37;;;;;;;;;;;;;;;-4.75;88.33;100127.88;5016668;28;19921;-74
2022/01/15 05:54:04;;;;;;;;;;;;;;;-4.80;88.27;100129.56;5016826;28;19921;-74
2022/01/15 05:56:31;;;;;;;;;;;;;;;-4.89;88.19;100132.97;5017134;28;19925;-74
2022/01/15 05:58:59;;;;;;;;;;;;;;;-4.85;88.36;100132.13;5016635;28;19928;-75
2022/01/15 06:01:25;;;;;;;;;;;;;;;-4.87;88.06;100133.81;5016547;28;19933;-74
2022/01/15 06:03:53;;;;;;;;;;;;;;;-5.00;88.92;100134.69;5016403;28;19921;-73
2022/01/15 06:06:20;;;;;;;;;;;;;;;-4.83;87.92;100140.56;5016315;28;20001;-75
2022/01/15 06:08:47;;;;;;;;;;;;;;;-4.81;86.85;100150.69;5016280;28;19944;-74
2022/01/15 06:11:17;;;;;;;;;;;;;;;-4.85;86.65;100146.50;5016281;28;19921;-74
2022/01/15 06:13:44;;;;;;;;;;;;;;;-4.85;86.64;100154.13;5016296;28;19944;-73
2022/01/15 06:16:12;;;;;;;;;;;;;;;-4.78;86.59;100153.22;5016282;28;19929;-75
2022/01/15 06:18:38;;;;;;;;;;;;;;;-4.84;86.39;100161.72;5015970;28;19922;-73
2022/01/15 06:21:05;;;;;;;;;;;;;;;-4.96;87.34;100165.94;5016189;28;20383;-73
2022/01/15 06:23:32;;;;;;;;;;;;;;;-4.93;87.16;100165.94;5016147;28;19960;-75
2022/01/15 06:25:58;;;;;;;;;;;;;;;-5.05;87.95;100170.19;5015833;28;19925;-74
2022/01/15 06:28:25;;;;;;;;;;;;;;;-5.13;88.15;100173.59;5015489;28;20383;-73
2022/01/15 06:30:51;;;;;;;;;;;;;;;-5.10;87.90;100181.19;5015945;28;19928;-74
2022/01/15 06:33:20;;;;;;;;;;;;;;;-5.08;87.86;100177.81;5015607;28;19922;-73
2022/01/15 06:35:46;;;;;;;;;;;;;;;-5.00;87.49;100179.50;5015834;28;19928;-75
2022/01/15 06:38:13;;;;;;;;;;;;;;;-5.05;87.82;100185.41;5015508;28;19921;-74
2022/01/15 06:40:39;;;;;;;;;;;;;;;-5.07;87.36;100188.81;5015753;28;19922;-72
2022/01/15 06:43:06;;;;;;;;;;;;;;;-5.09;87.44;100193.03;5015799;28;19929;-75
2022/01/15 06:45:33;;;;;;;;;;;;;;;-5.11;86.47;100190.50;5015767;28;20418;-73
2022/01/15 06:48:02;;;;;;;;;;;;;;;-4.91;85.31;100189.63;5015401;28;19933;-73
2022/01/15 06:50:30;;;;;;;;;;;;;;;-4.90;85.49;100199.78;5015564;28;19925;-75
2022/01/15 06:52:58;;;;;;;;;;;;;;;-4.85;85.09;100208.25;5015397;28;20398;-75
2022/01/15 06:55:24;;;;;;;;;;;;;;;-4.91;84.46;100218.38;5015521;28;19921;-74
2022/01/15 06:57:51;;;;;;;;;;;;;;;-4.94;84.66;100215.84;5015491;28;19928;-75
2022/01/15 07:00:18;;;;;;;;;;;;;;;-4.90;83.99;100219.25;5015297;28;19921;-73
2022/01/15 07:02:44;;;;;;;;;;;;;;;-4.87;84.23;100227.69;5015182;28;19926;-74
2022/01/15 07:05:11;;;;;;;;;;;;;;;-4.83;83.59;100226.00;5015263;28;20261;-73
2022/01/15 07:07:44;;;;;;;;;;;;;;;-4.75;83.15;100228.53;5015587;28;19921;-74
2022/01/15 07:10:11;;;;;;;;;;;;;;;-4.72;82.88;100234.47;5015612;28;19944;-74
2022/01/15 07:12:37;;;;;;;;;;;;;;;-4.84;83.27;100231.94;5015608;28;19921;-72
2022/01/15 07:15:04;;;;;;;;;;;;;;;-4.85;82.73;100232.78;5014998;28;20288;-73
2022/01/15 07:17:31;;;;;;;;;;;;;;;-4.83;82.38;100237.00;5014980;28;20359;-74
2022/01/15 07:19:58;;;;;;;;;;;;;;;-4.71;81.75;100241.22;5015105;28;19921;-74
2022/01/15 07:22:24;;;;;;;;;;;;;;;-4.74;82.16;100243.75;5015286;28;19928;-74
2022/01/15 07:24:52;;;;;;;;;;;;;;;-4.73;82.06;100247.16;5015191;28;19928;-72
2022/01/15 07:27:19;;;;;;;;;;;;;;;-4.82;82.22;100259.00;5014600;28;19921;-74
2022/01/15 07:29:45;;;;;;;;;;;;;;;-4.80;82.25;100261.56;5014874;28;19932;-73
2022/01/15 07:32:12;;;;;;;;;;;;;;;-4.89;82.77;100261.53;5014864;28;19927;-73
2022/01/15 07:34:38;;;;;;;;;;;;;;;-4.88;82.67;100269.16;5014961;28;20284;-73
2022/01/15 07:37:05;;;;;;;;;;;;;;;-4.82;81.94;100270.84;5014720;28;19926;-73
2022/01/15 07:39:32;;;;;;;;;;;;;;;-4.86;81.81;100280.13;5014876;28;19925;-74
2022/01/15 07:42:00;;;;;;;;;;;;;;;-4.93;82.47;100281.00;5014532;28;20410;-74
2022/01/15 07:44:27;;;;;;;;;;;;;;;-4.87;81.96;100292.84;5014682;28;19929;-74
2022/01/15 07:46:54;;;;;;;;;;;;;;;-4.87;81.43;100292.84;5014439;28;19928;-74
2022/01/15 07:49:21;;;;;;;;;;;;;;;-4.90;81.73;100291.16;5014546;28;19921;-72
2022/01/15 07:51:47;;;;;;;;;;;;;;;-4.90;81.11;100296.22;5014337;28;20368;-77
2022/01/15 07:54:14;;;;;;;;;;;;;;;-4.83;80.65;100291.97;5014547;28;19928;-73
2022/01/15 07:56:40;;;;;;;;;;;;;;;-4.93;81.14;100285.22;5014846;28;19922;-73
2022/01/15 07:59:08;;;;;;;;;;;;;;;-4.87;80.91;100296.22;5014389;28;20279;-73
2022/01/15 08:01:35;;;;;;;;;;;;;;;-4.85;81.06;100294.53;5014162;28;20132;-74
2022/01/15 08:04:02;;;;;;;;;;;;;;;-4.86;80.84;100302.97;5014365;28;20374;-73
2022/01/15 08:06:29;;;;;;;;;;;;;;;-4.93;81.25;100302.97;5014001;28;19921;-74
2022/01/15 08:08:56;;;;;;;;;;;;;;;-4.91;81.15;100319.88;5013170;28;19932;-73
2022/01/15 08:11:22;;;;;;;;;;;;;;;-4.92;81.35;100323.28;5014086;28;19922;-74
2022/01/15 08:13:49;;;;;;;;;;;;;;;-4.92;80.74;100322.44;5013976;28;19921;-74
2022/01/15 08:16:17;;;;;;;;;;;;;;;-4.93;81.11;100318.19;5013800;28;19925;-74
2022/01/15 08:18:43;;;;;;;;;;;;;;;-4.94;81.19;100330.03;5013806;28;19921;-73
2022/01/15 08:21:10;;;;;;;;;;;;;;;-4.97;81.18;100331.75;5013847;28;19928;-74
2022/01/15 08:23:38;;;;;;;;;;;;;;;-4.95;81.24;100328.34;5013681;28;19921;-73
2022/01/15 08:26:04;;;;;;;;;;;;;;;-5.01;80.88;100330.88;5013890;28;19932;-73
2022/01/15 08:28:31;;;;;;;;;;;;;;;-5.09;81.27;100327.47;5013386;28;19921;-74
2022/01/15 08:30:57;;;;;;;;;;;;;;;-5.06;81.17;100332.56;5014041;28;19928;-75
2022/01/15 08:33:25;;;;;;;;;;;;;;;-5.03;81.18;100335.13;5013640;28;19921;-75
2022/01/15 08:35:52;;;;;;;;;;;;;;;-4.97;80.30;100340.19;5013707;28;19928;-75
2022/01/15 08:38:19;;;;;;;;;;;;;;;-5.04;80.72;100344.41;5013617;28;20368;-75
2022/01/15 08:40:45;;;;;;;;;;;;;;;-4.92;80.37;100343.59;5013425;28;20300;-75
2022/01/15 08:43:12;;;;;;;;;;;;;;;-4.93;79.67;100346.09;5013579;28;19956;-74
2022/01/15 08:45:39;;;;;;;;;;;;;;;-4.92;80.03;100342.75;5013583;28;20372;-75
2022/01/15 08:48:07;;;;;;;;;;;;;;;-4.94;79.67;100354.56;5013167;28;19972;-75
2022/01/15 08:50:36;;;;;;;;;;;;;;;-4.92;79.30;100357.97;5013635;28;19921;-74
2022/01/15 08:53:04;;;;;;;;;;;;;;;-4.82;78.78;100373.22;5013445;28;19943;-74
2022/01/15 08:55:31;;;;;;;;;;;;;;;-4.97;79.27;100364.72;5013415;28;19929;-75
2022/01/15 08:57:58;;;;;;;;;;;;;;;-4.89;79.42;100379.13;5036206;22;19947;-72
2022/01/15 09:00:24;;;;;;;;;;;;;;;-5.01;79.30;100384.16;5033095;28;20398;-71
2022/01/15 09:02:51;;;;;;;;;;;;;;;-4.82;78.31;100382.53;5032999;28;19921;-70
2022/01/15 09:05:18;;;;;;;;;;;;;;;-4.82;78.79;100392.69;5033090;28;19921;-71
2022/01/15 09:07:46;;;;;;;;;;;;;;;-4.96;78.72;100387.53;5032997;28;19925;-70
2022/01/15 09:10:13;;;;;;;;;;;;;;;-4.84;78.71;100399.44;5032829;28;20394;-71
2022/01/15 09:12:39;;;;;;;;;;;;;;;-4.89;78.96;100398.56;5032641;28;20361;-70
2022/01/15 09:15:06;;;;;;;;;;;;;;;-4.84;78.46;100397.72;5032863;28;19928;-69
2022/01/15 09:17:33;;;;;;;;;;;;;;;-4.86;77.82;100393.50;5032541;28;19921;-69
2022/01/15 09:20:00;;;;;;;;;;;;;;;-4.84;78.63;100395.19;5032570;28;19921;-71
2022/01/15 09:22:26;;;;;;;;;;;;;;;-4.92;78.01;100408.72;5032476;28;20378;-71
2022/01/15 09:24:54;;;;;;;;;;;;;;;-4.93;77.73;100410.41;5032513;28;19921;-71
2022/01/15 09:30:16;;;;;;;;;;;;;;;-4.85;78.59;100421.44;5032706;28;20294;-71
2022/01/15 09:32:44;;;;;;;;;;;;;;;-4.87;77.76;100422.28;5032589;28;19933;-71
2022/01/15 09:35:11;;;;;;;;;;;;;;;-4.82;77.63;100423.97;5032449;28;20390;-70
2022/01/15 09:37:38;;;;;;;;;;;;;;;-4.90;77.75;100425.66;5032296;28;19929;-71
2022/01/15 09:40:07;;;;;;;;;;;;;;;-4.94;77.49;100431.53;5032720;28;19928;-71
2022/01/15 09:42:34;;;;;;;;;;;;;;;-4.89;77.67;100429.88;5032575;28;19925;-71
2022/01/15 09:45:02;;;;;;;;;;;;;;;-4.88;78.11;100439.19;5032381;28;19921;-70
2022/01/15 09:47:29;;;;;;;;;;;;;;;-4.94;77.86;100438.31;5032245;28;20283;-70
2022/01/15 09:49:57;;;;;;;;;;;;;;;-4.89;78.01;100434.94;5032316;28;19921;-71
2022/01/15 09:52:24;;;;;;;;;;;;;;;-4.99;78.27;100440.00;5032733;28;20032;-71
2022/01/15 09:54:51;;;;;;;;;;;;;;;-4.90;77.91;100448.50;5032671;28;19967;-69
2022/01/15 09:57:19;;;;;;;;;;;;;;;-4.88;77.89;100438.31;5044330;23;19974;-71
2022/01/15 09:59:46;;;;;;;;;;;;;;;-4.84;78.41;100442.56;5032657;28;19928;-71
2022/01/15 10:02:13;;;;;;;;;;;;;;;-4.90;78.83;100447.66;5032371;28;19932;-72
2022/01/15 10:04:39;;;;;;;;;;;;;;;-4.83;78.33;100450.22;5032293;28;19925;-72
2022/01/15 10:07:07;;;;;;;;;;;;;;;-4.92;79.04;100455.25;5032136;28;19921;-72
2022/01/15 10:09:33;;;;;;;;;;;;;;;-4.85;78.28;100458.66;5032218;28;20256;-71
2022/01/15 10:12:00;;;;;;;;;;;;;;;-4.93;78.53;100456.09;5032111;28;19949;-73
2022/01/15 10:14:28;;;;;;;;;;;;;;;-4.94;79.21;100467.06;5032168;28;19921;-72
2022/01/15 10:16:56;;;;;;;;;;;;;;;-4.93;79.06;100462.84;5031899;28;19921;-74
2022/01/15 10:19:27;;;;;;;;;;;;;;;-4.93;78.67;100465.38;5032377;28;20359;-72
2022/01/15 10:22:06;;;;;;;;;;;;;;;-4.96;78.74;100478.91;5032216;28;19920;-72
2022/01/15 10:24:33;;;;;;;;;;;;;;;-4.95;78.87;100470.47;5032263;28;19928;-73
2022/01/15 10:27:14;;;;;;;;;;;;;;;-4.97;79.02;100479.75;5032064;28;19928;-72
2022/01/15 10:29:42;;;;;;;;;;;;;;;-4.88;79.11;100473.84;5031739;28;19925;-72
2022/01/15 10:32:13;;;;;;;;;;;;;;;-4.98;78.62;100475.53;5033780;28;19928;-72
2022/01/15 10:34:44;;;;;;;;;;;;;;;-4.80;78.65;100484.91;5035583;28;19925;-72
2022/01/15 10:37:12;;;;;;;;;;;;;;;-4.86;79.14;100489.94;5035707;28;19921;-72
2022/01/15 10:39:39;;;;;;;;;;;;;;;-4.81;78.75;100489.09;5035701;28;19932;-72
2022/01/15 10:42:14;;;;;;;;;;;;;;;-4.85;78.95;100497.56;5035473;28;19921;-72
2022/01/15 10:44:42;;;;;;;;;;;;;;;-4.94;79.25;100492.44;5035671;28;19921;-73
2022/01/15 10:47:09;;;;;;;;;;;;;;;-4.90;79.07;100499.25;5035526;28;19925;-67
2022/01/15 10:49:38;;;;;;;;;;;;;;;-4.86;79.01;100488.25;5035480;28;19928;-72
2022/01/15 10:52:05;;;;;;;;;;;;;;;-4.90;78.73;100500.94;5035211;28;19921;-75
2022/01/15 10:54:34;;;;;;;;;;;;;;;-4.75;79.15;100507.75;5035377;28;19952;-75
2022/01/15 10:57:07;;;;;;;;;;;;;;;-4.83;78.50;100512.78;5035720;28;19921;-76
2022/01/15 10:59:33;;;;;;;;;;;;;;;-4.89;78.78;100505.16;5035300;28;20302;-75
2022/01/15 11:02:24;;;;;;;;;;;;;;;-4.87;79.16;100513.63;5035305;28;19928;-75
2022/01/15 11:04:52;;;;;;;;;;;;;;;-5.02;79.42;100511.88;5019963;28;20371;-75
2022/01/15 11:07:19;;;;;;;;;;;;;;;-4.92;79.48;100513.59;5035019;28;20276;-75
2022/01/15 11:09:47;;;;;;;;;;;;;;;-4.94;79.37;100517.81;5035172;28;20279;-72
2022/01/15 11:12:13;;;;;;;;;;;;;;;-4.89;78.65;100516.16;5034977;28;20424;-75
2022/01/15 11:14:40;;;;;;;;;;;;;;;-4.82;79.27;100527.19;5034880;28;19975;-74
2022/01/15 11:17:07;;;;;;;;;;;;;;;-4.73;78.08;100534.81;5034400;28;19921;-77
2022/01/15 11:19:35;;;;;;;;;;;;;;;-4.83;78.25;100535.63;5034492;28;19921;-75
2022/01/15 11:22:04;;;;;;;;;;;;;;;-4.77;78.30;100538.22;5034904;28;19921;-74
2022/01/15 11:24:34;;;;;;;;;;;;;;;-4.81;77.71;100544.09;5035049;28;19921;-74
2022/01/15 11:27:15;;;;;;;;;;;;;;;-4.83;77.58;100558.47;5034816;28;19921;-73
2022/01/15 11:29:44;;;;;;;;;;;;;;;-4.88;78.23;100560.13;5034370;28;19928;-75
2022/01/15 11:32:12;;;;;;;;;;;;;;;-5.04;79.13;100564.28;5034751;28;20351;-76
2022/01/15 11:34:39;;;;;;;;;;;;;;;-4.94;78.91;100563.50;5034722;28;19925;-74
2022/01/15 11:37:17;;;;;;;;;;;;;;;-5.04;79.00;100570.22;5034598;28;20024;-76
2022/01/15 11:39:44;;;;;;;;;;;;;;;-4.99;79.19;100569.41;5034697;28;19921;-73
2022/01/15 11:42:24;;;;;;;;;;;;;;;-5.00;79.03;100567.72;5034482;28;20370;-72
2022/01/15 11:44:51;;;;;;;;;;;;;;;-5.16;79.89;100571.81;5033776;28;20360;-73
2022/01/15 11:47:21;;;;;;;;;;;;;;;-5.09;79.72;100582.03;5031568;28;20016;-73
2022/01/15 11:49:49;;;;;;;;;;;;;;;-5.03;79.29;100574.47;5033846;28;19921;-74
2022/01/15 11:52:45;;;;;;;;;;;;;;;-4.72;78.52;100576.31;5034451;28;19959;-75
2022/01/15 11:55:15;;;;;;;;;;;;;;;-4.72;78.01;100576.31;5034331;28;19967;-74
2022/01/15 11:57:46;;;;;;;;;;;;;;;-4.78;77.74;100574.56;5044257;23;19989;-70
2022/01/15 12:00:16;;;;;;;;;;;;;;;-4.98;79.09;100576.16;5074267;28;19943;-72
2022/01/15 12:02:56;;;;;;;;;;;;;;;-4.94;78.55;100580.44;5073886;28;19927;-72
2022/01/15 12:05:27;;;;;;;;;;;;;;;-5.07;79.46;100582.03;5073740;28;19920;-70
2022/01/15 12:08:09;;;;;;;;;;;;;;;-5.17;79.76;100587.91;5064293;28;19920;-71
2022/01/15 12:10:40;;;;;;;;;;;;;;;-5.16;80.01;100587.91;5053008;28;19932;-71
2022/01/15 12:13:11;;;;;;;;;;;;;;;-5.34;80.66;100585.25;5053786;28;20283;-71
2022/01/15 12:15:37;;;;;;;;;;;;;;;-5.46;81.26;100586.00;5053955;28;19927;-68
2022/01/15 12:18:14;;;;;;;;;;;;;;;-5.49;81.54;100593.59;5053789;28;19920;-71
2022/01/15 12:20:41;;;;;;;;;;;;;;;-5.58;82.07;100596.88;5053747;28;19925;-71
2022/01/15 12:23:27;;;;;;;;;;;;;;;-5.61;82.24;100589.25;5034535;28;19921;-70
2022/01/15 12:25:56;;;;;;;;;;;;;;;-5.62;82.34;100595.19;5033804;28;20023;-71
2022/01/15 12:28:24;;;;;;;;;;;;;;;-5.67;81.86;100590.91;5033874;28;20039;-71
2022/01/15 12:30:53;;;;;;;;;;;;;;;-5.77;82.46;100587.44;5033201;28;19921;-71
2022/01/15 12:33:20;;;;;;;;;;;;;;;-5.75;82.23;100591.69;5033609;28;20272;-71
2022/01/15 12:35:47;;;;;;;;;;;;;;;-5.86;82.44;100588.19;5033618;28;19921;-71
2022/01/15 12:38:16;;;;;;;;;;;;;;;-5.77;82.28;100589.97;5033317;28;19975;-71
2022/01/15 12:40:44;;;;;;;;;;;;;;;-5.71;82.17;100592.56;5033189;28;19921;-71
2022/01/15 12:43:13;;;;;;;;;;;;;;;-5.83;82.12;100602.56;5033293;28;19943;-70
2022/01/15 12:45:40;;;;;;;;;;;;;;;-5.97;83.25;100605.03;5033359;28;19921;-68
2022/01/15 12:48:08;;;;;;;;;;;;;;;-5.85;83.05;100589.91;5033098;28;19921;-73
2022/01/15 12:50:45;;;;;;;;;;;;;;;-5.91;83.48;100580.56;5033016;28;19925;-70
2022/01/15 12:53:12;;;;;;;;;;;;;;;-5.96;83.40;100577.19;5032963;28;19921;-69
2022/01/15 12:55:39;;;;;;;;;;;;;;;-5.93;83.70;100582.22;5038381;28;20309;-71
2022/01/15 12:58:07;;;;;;;;;;;;;;;-5.97;83.36;100575.47;5072660;22;19921;-75
2022/01/15 13:00:36;;;;;;;;;;;;;;;-6.08;83.27;100572.00;5072814;28;20298;-74
2022/01/15 13:03:06;;;;;;;;;;;;;;;-6.09;83.70;100569.44;5072740;28;19927;-76